createdAt,value
2018-06-02T00:01:31.504Z,20.70
2018-06-02T00:04:00.530Z,20.60
2018-06-02T00:06:28.786Z,20.50
2018-06-02T00:08:57.816Z,20.60
2018-06-02T00:11:26.067Z,20.60
2018-06-02T00:13:54.321Z,20.60
2018-06-02T00:16:23.335Z,20.50
2018-06-02T00:18:51.596Z,20.50
2018-06-02T00:21:20.599Z,20.50
2018-06-02T00:23:48.862Z,20.50
2018-06-02T00:26:17.891Z,20.50
2018-06-02T00:28:46.283Z,20.50
2018-06-02T00:31:14.532Z,20.40
2018-06-02T00:33:42.831Z,20.30
2018-06-02T00:36:11.279Z,20.30
2018-06-02T00:38:39.534Z,20.20
2018-06-02T00:41:08.555Z,20.30
2018-06-02T00:43:36.816Z,20.20
2018-06-02T00:46:05.179Z,20.30
2018-06-02T00:48:33.409Z,20.20
2018-06-02T00:51:01.652Z,20.20
2018-06-02T00:53:29.928Z,20.20
2018-06-02T00:55:58.204Z,20.20
2018-06-02T00:58:26.502Z,20.20
2018-06-02T01:00:54.774Z,20.10
2018-06-02T01:03:23.024Z,20.10
2018-06-02T01:05:51.271Z,20.00
2018-06-02T01:08:20.495Z,20.20
2018-06-02T01:10:48.747Z,20.10
2018-06-02T01:13:17.774Z,20.10
2018-06-02T01:15:46.373Z,20.10
2018-06-02T01:18:14.624Z,20.10
2018-06-02T01:20:42.867Z,20.10
2018-06-02T01:23:12.001Z,20.00
2018-06-02T01:25:40.246Z,20.00
2018-06-02T01:28:09.295Z,20.00
2018-06-02T01:30:37.599Z,19.90
2018-06-02T01:33:05.881Z,20.00
2018-06-02T01:35:34.156Z,19.90
2018-06-02T01:38:03.190Z,19.80
2018-06-02T01:40:31.427Z,19.80
2018-06-02T01:43:00.462Z,19.90
2018-06-02T01:45:28.730Z,19.90
2018-06-02T01:47:56.976Z,19.80
2018-06-02T01:50:26.008Z,19.70
2018-06-02T01:52:54.252Z,19.70
2018-06-02T01:55:22.516Z,19.70
2018-06-02T01:57:51.585Z,19.70
2018-06-02T02:00:19.845Z,19.70
2018-06-02T02:02:48.096Z,19.60
2018-06-02T02:05:16.346Z,19.60
2018-06-02T02:07:44.609Z,19.50
2018-06-02T02:10:13.646Z,19.30
2018-06-02T02:12:41.905Z,19.30
2018-06-02T02:15:10.163Z,19.30
2018-06-02T02:17:38.413Z,19.30
2018-06-02T02:20:06.667Z,19.40
2018-06-02T02:22:34.928Z,19.40
2018-06-02T02:25:03.182Z,19.50
2018-06-02T02:27:31.756Z,19.50
2018-06-02T02:29:59.997Z,19.50
2018-06-02T02:32:28.999Z,19.50
2018-06-02T02:34:58.020Z,19.50
2018-06-02T02:37:26.275Z,19.50
2018-06-02T02:39:55.309Z,19.40
2018-06-02T02:42:23.561Z,19.40
2018-06-02T02:44:52.696Z,19.40
2018-06-02T02:47:20.952Z,19.40
2018-06-02T02:49:49.200Z,19.40
2018-06-02T02:52:17.467Z,19.30
2018-06-02T02:54:45.723Z,19.30
2018-06-02T02:57:14.740Z,19.40
2018-06-02T02:59:43.119Z,19.40
2018-06-02T03:02:11.364Z,19.50
2018-06-02T03:04:39.618Z,19.50
2018-06-02T03:07:07.871Z,19.40
2018-06-02T03:09:36.113Z,19.30
2018-06-02T03:12:04.363Z,19.30
2018-06-02T03:14:33.408Z,19.20
2018-06-02T03:17:02.427Z,19.30
2018-06-02T03:19:30.671Z,19.30
2018-06-02T03:21:58.928Z,19.40
2018-06-02T03:24:27.183Z,19.40
2018-06-02T03:26:56.182Z,19.40
2018-06-02T03:29:24.447Z,19.30
2018-06-02T03:31:52.698Z,19.40
2018-06-02T03:34:20.963Z,19.40
2018-06-02T03:36:49.216Z,19.40
2018-06-02T03:39:17.459Z,19.40
2018-06-02T03:41:45.719Z,19.40
2018-06-02T03:44:14.730Z,19.30
2018-06-02T03:46:42.977Z,19.20
2018-06-02T03:49:12.013Z,19.30
2018-06-02T03:51:40.384Z,19.20
2018-06-02T03:54:08.625Z,19.30
2018-06-02T03:56:37.632Z,19.20
2018-06-02T03:59:06.758Z,19.20
2018-06-02T04:01:35.083Z,19.20
2018-06-02T04:04:03.302Z,19.20
2018-06-02T04:06:31.831Z,19.20
2018-06-02T04:09:00.085Z,19.20
2018-06-02T04:11:28.328Z,19.20
2018-06-02T04:13:56.591Z,19.20
2018-06-02T04:16:24.867Z,19.30
2018-06-02T04:18:53.127Z,19.30
2018-06-02T04:21:22.436Z,19.30
2018-06-02T04:23:51.460Z,19.30
2018-06-02T04:26:19.717Z,19.20
2018-06-02T04:28:47.975Z,19.20
2018-06-02T04:31:16.235Z,19.20
2018-06-02T04:33:45.251Z,19.30
2018-06-02T04:36:13.507Z,19.30
2018-06-02T04:38:42.537Z,19.40
2018-06-02T04:41:10.903Z,19.40
2018-06-02T04:43:39.152Z,19.60
2018-06-02T04:46:08.162Z,19.70
2018-06-02T04:48:36.766Z,19.70
2018-06-02T04:51:05.010Z,19.90
2018-06-02T04:53:33.267Z,19.90
2018-06-02T04:56:02.302Z,19.90
2018-06-02T04:58:30.707Z,20.00
2018-06-02T05:00:58.959Z,19.90
2018-06-02T05:03:27.368Z,20.00
2018-06-02T05:05:55.611Z,19.90
2018-06-02T05:08:23.858Z,19.90
2018-06-02T05:10:52.370Z,19.90
2018-06-02T05:13:20.620Z,20.00
2018-06-02T05:15:49.628Z,20.10
2018-06-02T05:18:17.889Z,20.10
2018-06-02T05:20:46.146Z,20.10
2018-06-02T05:23:15.155Z,20.10
2018-06-02T05:25:43.424Z,20.10
2018-06-02T05:28:12.442Z,20.30
2018-06-02T05:30:40.799Z,20.30
2018-06-02T05:33:09.050Z,20.30
2018-06-02T05:35:37.295Z,20.30
2018-06-02T05:38:05.556Z,20.40
2018-06-02T05:40:33.868Z,20.30
2018-06-02T05:43:02.066Z,20.30
2018-06-02T05:45:31.084Z,20.40
2018-06-02T05:47:59.762Z,20.30
2018-06-02T05:50:28.003Z,20.50
2018-06-02T05:52:57.137Z,20.60
2018-06-02T05:55:25.390Z,20.60
2018-06-02T05:57:54.400Z,20.50
2018-06-02T06:00:22.699Z,20.50
2018-06-02T06:02:50.939Z,20.40
2018-06-02T06:05:19.290Z,20.10
2018-06-02T06:07:47.520Z,20.00
2018-06-02T06:10:15.777Z,19.90
2018-06-02T06:12:44.065Z,19.80
2018-06-02T06:15:12.335Z,20.00
2018-06-02T06:17:40.842Z,20.20
2018-06-02T06:20:09.094Z,20.30
2018-06-02T06:22:37.331Z,20.30
2018-06-02T06:25:06.360Z,20.60
2018-06-02T06:27:35.375Z,20.70
2018-06-02T06:30:03.638Z,20.70
2018-06-02T06:32:31.922Z,20.90
2018-06-02T06:35:00.178Z,21.10
2018-06-02T06:37:28.435Z,21.10
2018-06-02T06:39:56.680Z,21.10
2018-06-02T06:42:25.839Z,20.90
2018-06-02T06:44:54.099Z,20.90
2018-06-02T06:47:22.350Z,21.00
2018-06-02T06:49:50.611Z,21.00
2018-06-02T06:52:19.626Z,21.70
2018-06-02T06:54:47.879Z,21.70
2018-06-02T06:57:16.910Z,22.20
2018-06-02T06:59:45.158Z,22.20
2018-06-02T07:02:13.416Z,22.50
2018-06-02T07:04:42.441Z,22.80
2018-06-02T07:07:10.704Z,22.80
2018-06-02T07:09:38.955Z,22.60
2018-06-02T07:12:07.963Z,21.90
2018-06-02T07:14:37.007Z,22.10
2018-06-02T07:17:05.258Z,22.00
2018-06-02T07:19:33.504Z,22.30
2018-06-02T07:22:02.536Z,22.90
2018-06-02T07:24:30.776Z,22.80
2018-06-02T07:26:59.032Z,22.80
2018-06-02T07:29:28.063Z,22.70
2018-06-02T07:31:56.329Z,22.70
2018-06-02T07:34:24.585Z,22.80
2018-06-02T07:36:53.603Z,23.10
2018-06-02T07:39:21.854Z,23.00
2018-06-02T07:41:50.468Z,23.10
2018-06-02T07:44:18.760Z,23.40
2018-06-02T07:46:46.995Z,23.70
2018-06-02T07:49:15.263Z,23.90
2018-06-02T07:51:44.300Z,23.60
2018-06-02T07:54:12.535Z,23.60
2018-06-02T07:56:40.786Z,23.50
2018-06-02T07:59:09.039Z,23.40
2018-06-02T08:01:37.293Z,23.30
2018-06-02T08:04:05.554Z,23.30
2018-06-02T08:06:33.832Z,23.20
2018-06-02T08:09:02.087Z,23.10
2018-06-02T08:11:30.351Z,23.20
2018-06-02T08:13:59.379Z,23.90
2018-06-02T08:16:27.623Z,23.80
2018-06-02T08:18:56.643Z,23.90
2018-06-02T08:21:24.887Z,23.90
2018-06-02T08:23:54.025Z,23.60
2018-06-02T08:26:22.269Z,23.60
2018-06-02T08:28:50.525Z,23.70
2018-06-02T08:31:19.847Z,23.70
2018-06-02T08:33:48.250Z,23.70
2018-06-02T08:36:16.510Z,23.70
2018-06-02T08:38:44.764Z,23.60
2018-06-02T08:41:13.767Z,23.50
2018-06-02T08:43:42.030Z,23.50
2018-06-02T08:46:10.284Z,23.50
2018-06-02T08:48:38.524Z,23.60
2018-06-02T08:51:06.791Z,23.60
2018-06-02T08:53:35.046Z,23.70
2018-06-02T08:56:03.289Z,23.90
2018-06-02T08:58:32.331Z,24.10
2018-06-02T09:01:00.583Z,24.10
2018-06-02T09:03:28.831Z,24.20
2018-06-02T09:05:57.867Z,24.00
2018-06-02T09:08:26.373Z,24.00
2018-06-02T09:10:54.638Z,24.00
2018-06-02T09:13:23.646Z,24.30
2018-06-02T09:15:51.913Z,24.30
2018-06-02T09:18:20.160Z,24.40
2018-06-02T09:20:48.423Z,24.60
2018-06-02T09:23:16.668Z,24.70
2018-06-02T09:25:45.676Z,24.70
2018-06-02T09:28:15.010Z,24.70
2018-06-02T09:30:43.252Z,24.70
2018-06-02T09:33:12.285Z,24.60
2018-06-02T09:35:40.532Z,24.60
2018-06-02T09:38:08.773Z,24.40
2018-06-02T09:40:38.111Z,24.40
2018-06-02T09:43:06.371Z,24.40
2018-06-02T09:45:35.381Z,24.40
2018-06-02T09:48:03.732Z,24.40
2018-06-02T09:50:32.817Z,24.60
2018-06-02T09:53:01.032Z,24.60
2018-06-02T09:55:29.290Z,24.90
2018-06-02T09:57:57.530Z,25.20
2018-06-02T10:00:25.794Z,25.40
2018-06-02T10:02:54.085Z,25.40
2018-06-02T10:05:22.315Z,25.40
2018-06-02T10:07:50.556Z,25.30
2018-06-02T10:10:18.819Z,25.10
2018-06-02T10:12:47.823Z,25.40
2018-06-02T10:15:16.090Z,25.40
2018-06-02T10:17:45.106Z,25.30
2018-06-02T10:20:13.383Z,25.30
2018-06-02T10:22:41.744Z,25.30
2018-06-02T10:25:09.995Z,25.40
2018-06-02T10:27:41.646Z,26.00
2018-06-02T10:30:09.934Z,26.00
2018-06-02T10:32:38.951Z,26.20
2018-06-02T10:35:07.604Z,26.20
2018-06-02T10:37:35.820Z,26.50
2018-06-02T10:40:04.068Z,26.60
2018-06-02T10:42:33.100Z,26.80
2018-06-02T10:45:01.339Z,26.70
2018-06-02T10:47:29.596Z,26.80
2018-06-02T10:49:58.625Z,26.80
2018-06-02T10:52:26.883Z,26.80
2018-06-02T10:54:55.136Z,26.70
2018-06-02T10:57:23.401Z,26.60
2018-06-02T10:59:51.654Z,26.40
2018-06-02T11:02:19.893Z,26.60
2018-06-02T11:04:48.240Z,26.80
2018-06-02T11:07:16.493Z,26.90
2018-06-02T11:09:44.757Z,27.00
2018-06-02T11:12:13.311Z,27.00
2018-06-02T11:14:41.568Z,27.00
2018-06-02T11:17:10.586Z,27.30
2018-06-02T11:19:38.851Z,27.20
2018-06-02T11:22:07.107Z,27.30
2018-06-02T11:24:35.505Z,27.20
2018-06-02T11:27:03.763Z,26.70
2018-06-02T11:29:32.768Z,26.60
2018-06-02T11:32:01.039Z,26.60
2018-06-02T11:34:29.571Z,26.60
2018-06-02T11:36:57.822Z,26.30
2018-06-02T11:39:26.830Z,26.40
2018-06-02T11:41:55.084Z,26.40
2018-06-02T11:44:23.397Z,26.60
2018-06-02T11:46:51.602Z,26.90
2018-06-02T11:49:20.717Z,27.00
2018-06-02T11:51:48.957Z,27.00
2018-06-02T11:54:17.981Z,27.00
2018-06-02T11:56:46.243Z,27.00
2018-06-02T11:59:14.504Z,26.90
2018-06-02T12:01:43.537Z,27.10
2018-06-02T12:04:11.847Z,27.10
2018-06-02T12:06:40.097Z,27.10
2018-06-02T12:09:08.355Z,27.10
2018-06-02T12:11:36.639Z,27.30
2018-06-02T12:14:04.891Z,27.10
2018-06-02T12:16:33.174Z,27.10
2018-06-02T12:19:01.432Z,27.20
2018-06-02T12:21:29.717Z,27.30
2018-06-02T12:23:58.746Z,27.40
2018-06-02T12:26:27.029Z,27.40
2018-06-02T12:28:55.228Z,27.30
2018-06-02T12:31:23.488Z,27.40
2018-06-02T12:33:51.934Z,27.20
2018-06-02T12:36:20.279Z,27.00
2018-06-02T12:38:48.539Z,27.10
2018-06-02T12:41:17.567Z,27.70
2018-06-02T12:43:45.810Z,27.70
2018-06-02T12:46:14.827Z,27.80
2018-06-02T12:48:43.090Z,27.80
2018-06-02T12:51:12.111Z,27.30
2018-06-02T12:53:40.377Z,27.30
2018-06-02T12:56:08.628Z,27.20
2018-06-02T12:58:37.804Z,27.70
2018-06-02T13:01:06.043Z,27.70
2018-06-02T13:03:34.291Z,27.60
2018-06-02T13:06:02.691Z,27.70
2018-06-02T13:08:30.952Z,27.50
2018-06-02T13:10:59.203Z,27.20
2018-06-02T13:13:28.369Z,27.30
2018-06-02T13:15:56.624Z,27.30
2018-06-02T13:18:24.872Z,27.30
2018-06-02T13:20:53.139Z,27.30
2018-06-02T13:23:21.376Z,27.70
2018-06-02T13:25:50.396Z,28.20
2018-06-02T13:28:18.668Z,28.10
2018-06-02T13:30:46.936Z,28.30
2018-06-02T13:33:15.960Z,28.40
2018-06-02T13:35:44.232Z,28.40
2018-06-02T13:38:12.478Z,28.30
2018-06-02T13:40:41.495Z,28.60
2018-06-02T13:43:09.760Z,28.60
2018-06-02T13:45:38.045Z,28.70
2018-06-02T13:48:07.048Z,28.90
2018-06-02T13:50:36.217Z,28.90
2018-06-02T13:53:05.521Z,28.90
2018-06-02T13:55:33.779Z,28.80
2018-06-02T13:58:02.821Z,28.40
2018-06-02T14:00:31.064Z,28.30
2018-06-02T14:02:59.321Z,28.10
2018-06-02T14:05:28.339Z,27.40
2018-06-02T14:07:56.598Z,27.40
2018-06-02T14:10:24.853Z,27.40
2018-06-02T14:12:53.265Z,27.50
2018-06-02T14:15:21.536Z,27.50
2018-06-02T14:17:50.537Z,27.40
2018-06-02T14:20:18.809Z,27.40
2018-06-02T14:22:47.056Z,27.40
2018-06-02T14:25:16.089Z,27.10
2018-06-02T14:27:44.341Z,27.10
2018-06-02T14:30:12.613Z,27.20
2018-06-02T14:32:41.643Z,27.40
2018-06-02T14:35:09.903Z,27.40
2018-06-02T14:37:38.157Z,27.60
2018-06-02T14:40:07.428Z,28.00
2018-06-02T14:42:35.695Z,28.00
2018-06-02T14:45:03.952Z,28.10
2018-06-02T14:47:32.334Z,28.10
2018-06-02T14:50:00.583Z,28.20
2018-06-02T14:52:28.832Z,28.30
2018-06-02T14:54:57.899Z,28.20
2018-06-02T14:57:26.144Z,28.20
2018-06-02T14:59:54.401Z,28.20
2018-06-02T15:02:22.651Z,28.40
2018-06-02T15:04:50.902Z,28.10
2018-06-02T15:07:19.259Z,27.80
2018-06-02T15:09:47.459Z,27.30
2018-06-02T15:12:16.510Z,27.20
2018-06-02T15:14:44.769Z,27.20
2018-06-02T15:17:13.039Z,27.30
2018-06-02T15:19:41.304Z,27.20
2018-06-02T15:22:09.589Z,27.10
2018-06-02T15:24:37.926Z,27.30
2018-06-02T15:27:06.944Z,27.00
2018-06-02T15:29:35.197Z,27.00
2018-06-02T15:32:04.227Z,27.30
2018-06-02T15:34:32.472Z,27.30
2018-06-02T15:37:01.509Z,27.40
2018-06-02T15:39:29.767Z,27.40
2018-06-02T15:41:58.046Z,27.70
2018-06-02T15:44:26.306Z,28.00
2018-06-02T15:46:54.554Z,28.30
2018-06-02T15:49:23.590Z,28.10
2018-06-02T15:51:51.836Z,28.10
2018-06-02T15:54:20.890Z,28.10
2018-06-02T15:56:49.150Z,28.10
2018-06-02T15:59:18.177Z,28.40
2018-06-02T16:01:46.431Z,28.40
2018-06-02T16:04:14.681Z,28.50
2018-06-02T16:06:42.970Z,28.50
2018-06-02T16:09:11.380Z,28.40
2018-06-02T16:11:39.645Z,28.30
2018-06-02T16:14:07.903Z,28.00
2018-06-02T16:16:36.178Z,27.90
2018-06-02T16:19:04.437Z,28.00
2018-06-02T16:21:32.696Z,28.10
2018-06-02T16:24:01.278Z,28.00
2018-06-02T16:26:29.543Z,28.20
2018-06-02T16:28:57.781Z,28.30
2018-06-02T16:31:26.317Z,28.30
2018-06-02T16:33:56.448Z,28.30
2018-06-02T16:36:24.832Z,28.40
2018-06-02T16:38:53.244Z,28.30
2018-06-02T16:41:21.523Z,28.20
2018-06-02T16:43:50.539Z,28.00
2018-06-02T16:46:18.886Z,28.00
2018-06-02T16:48:47.136Z,28.20
2018-06-02T16:51:16.123Z,28.20
2018-06-02T16:53:44.384Z,28.20
2018-06-02T16:56:12.632Z,28.30
2018-06-02T16:58:40.878Z,28.40
2018-06-02T17:01:09.902Z,28.30
2018-06-02T17:03:38.148Z,28.20
2018-06-02T17:06:07.184Z,28.10
2018-06-02T17:08:35.430Z,28.10
2018-06-02T17:11:04.455Z,28.00
2018-06-02T17:13:32.700Z,27.90
2018-06-02T17:16:01.722Z,28.00
2018-06-02T17:18:29.978Z,28.00
2018-06-02T17:20:58.228Z,28.00
2018-06-02T17:23:27.248Z,28.30
2018-06-02T17:25:55.519Z,28.30
2018-06-02T17:28:23.763Z,28.20
2018-06-02T17:30:53.051Z,28.20
2018-06-02T17:33:21.312Z,28.20
2018-06-02T17:35:49.602Z,28.10
2018-06-02T17:38:17.868Z,28.10
2018-06-02T17:40:46.164Z,28.10
2018-06-02T17:43:15.193Z,28.10
2018-06-02T17:45:43.442Z,28.10
2018-06-02T17:48:12.465Z,27.70
2018-06-02T17:50:40.707Z,27.70
2018-06-02T17:53:09.746Z,27.30
2018-06-02T17:55:37.983Z,27.30
2018-06-02T17:58:07.048Z,27.40
2018-06-02T18:00:35.271Z,27.40
2018-06-02T18:03:03.527Z,27.40
2018-06-02T18:05:32.532Z,27.50
2018-06-02T18:08:00.804Z,27.50
2018-06-02T18:10:29.051Z,27.30
2018-06-02T18:12:58.158Z,27.20
2018-06-02T18:15:27.184Z,27.10
2018-06-02T18:17:55.452Z,27.10
2018-06-02T18:20:23.703Z,27.10
2018-06-02T18:22:52.783Z,27.00
2018-06-02T18:25:21.031Z,27.00
2018-06-02T18:27:49.311Z,26.90
2018-06-02T18:30:17.551Z,26.90
2018-06-02T18:32:45.819Z,27.00
2018-06-02T18:35:14.061Z,27.00
2018-06-02T18:37:43.083Z,26.90
2018-06-02T18:40:11.331Z,26.90
2018-06-02T18:42:40.424Z,26.70
2018-06-02T18:45:09.448Z,26.60
2018-06-02T18:47:37.731Z,26.60
2018-06-02T18:50:06.005Z,26.50
2018-06-02T18:52:34.246Z,26.30
2018-06-02T18:55:03.271Z,25.80
2018-06-02T18:57:31.560Z,25.80
2018-06-02T18:59:59.813Z,25.70
2018-06-02T19:02:28.183Z,25.60
2018-06-02T19:04:56.438Z,25.30
2018-06-02T19:07:25.470Z,24.90
2018-06-02T19:09:53.849Z,24.90
2018-06-02T19:12:22.101Z,24.70
2018-06-02T19:14:50.428Z,24.60
2018-06-02T19:17:18.665Z,24.50
2018-06-02T19:19:46.926Z,24.30
2018-06-02T19:22:15.185Z,24.30
2018-06-02T19:24:44.213Z,24.10
2018-06-02T19:27:12.457Z,24.10
2018-06-02T19:29:41.493Z,23.90
2018-06-02T19:32:09.756Z,23.80
2018-06-02T19:34:38.036Z,23.80
2018-06-02T19:37:06.293Z,23.60
2018-06-02T19:39:34.577Z,23.60
2018-06-02T19:42:02.816Z,23.50
2018-06-02T19:44:31.851Z,23.50
2018-06-02T19:47:00.102Z,23.50
2018-06-02T19:49:29.115Z,23.50
2018-06-02T19:51:57.380Z,23.40
2018-06-02T19:54:25.687Z,23.30
2018-06-02T19:56:53.967Z,23.10
2018-06-02T19:59:22.257Z,23.10
2018-06-02T20:01:50.687Z,23.10
2018-06-02T20:04:18.967Z,23.00
2018-06-02T20:06:47.274Z,23.10
2018-06-02T20:09:15.565Z,23.00
2018-06-02T20:11:43.849Z,23.00
2018-06-02T20:14:12.102Z,23.00
2018-06-02T20:16:40.628Z,23.00
2018-06-02T20:19:08.868Z,23.00
2018-06-02T20:21:37.128Z,23.00
2018-06-02T20:24:05.394Z,23.00
2018-06-02T20:26:33.677Z,22.90
2018-06-02T20:29:01.930Z,22.80
2018-06-02T20:31:30.211Z,22.70
2018-06-02T20:33:58.463Z,22.60
2018-06-02T20:36:26.982Z,22.50
2018-06-02T20:38:55.256Z,22.50
2018-06-02T20:41:23.515Z,22.60
2018-06-02T20:43:51.833Z,22.50
2018-06-02T20:46:20.128Z,22.50
2018-06-02T20:48:49.156Z,22.40
2018-06-02T20:51:17.432Z,22.40
2018-06-02T20:53:45.741Z,22.30
2018-06-02T20:56:13.975Z,22.20
2018-06-02T20:58:42.360Z,22.20
2018-06-02T21:01:10.608Z,22.20
2018-06-02T21:03:39.746Z,22.20
2018-06-02T21:06:08.022Z,22.20
2018-06-02T21:08:36.268Z,22.10
2018-06-02T21:11:04.543Z,22.00
2018-06-02T21:13:32.794Z,22.00
2018-06-02T21:16:01.837Z,21.90
2018-06-02T21:18:30.100Z,21.90
2018-06-02T21:20:58.392Z,21.90
2018-06-02T21:23:26.670Z,21.90
2018-06-02T21:25:54.915Z,21.80
2018-06-02T21:28:23.226Z,21.60
2018-06-02T21:30:51.487Z,21.60
2018-06-02T21:33:20.506Z,21.60
2018-06-02T21:35:48.774Z,21.60
2018-06-02T21:38:17.040Z,21.60
2018-06-02T21:40:45.304Z,21.70
2018-06-02T21:43:13.570Z,21.60
2018-06-02T21:45:41.894Z,21.50
2018-06-02T21:48:10.140Z,21.60
2018-06-02T21:50:38.388Z,21.50
2018-06-02T21:53:07.429Z,21.30
2018-06-02T21:55:35.672Z,21.20
2018-06-02T21:58:03.957Z,21.40
2018-06-02T22:00:32.208Z,21.40
2018-06-02T22:03:00.584Z,21.40
2018-06-02T22:05:28.831Z,21.30
2018-06-02T22:07:57.864Z,21.00
2018-06-02T22:10:26.133Z,21.00
2018-06-02T22:12:54.416Z,20.80
2018-06-02T22:15:22.663Z,20.80
2018-06-02T22:17:50.926Z,20.90
2018-06-02T22:20:19.944Z,20.90
2018-06-02T22:22:48.240Z,20.80
2018-06-02T22:25:16.513Z,20.80
2018-06-02T22:27:44.763Z,20.80
2018-06-02T22:30:13.031Z,20.80
2018-06-02T22:32:41.326Z,20.80
2018-06-02T22:35:09.561Z,20.90
2018-06-02T22:37:38.578Z,20.80
2018-06-02T22:40:06.835Z,20.80
2018-06-02T22:42:35.853Z,20.60
2018-06-02T22:45:04.119Z,20.60
2018-06-02T22:47:32.385Z,20.70
2018-06-02T22:50:00.694Z,20.70
2018-06-02T22:52:29.657Z,20.80
2018-06-02T22:54:58.206Z,20.80
2018-06-02T22:57:26.431Z,20.70
2018-06-02T22:59:54.689Z,20.60
2018-06-02T23:02:22.964Z,20.40
2018-06-02T23:04:51.216Z,20.40
2018-06-02T23:07:20.234Z,20.50
2018-06-02T23:09:48.747Z,20.50
2018-06-02T23:12:17.009Z,20.60
2018-06-02T23:14:45.240Z,20.50
2018-06-02T23:17:14.535Z,20.40
2018-06-02T23:19:42.800Z,20.40
2018-06-02T23:22:17.707Z,20.50
2018-06-02T23:24:45.964Z,20.40
2018-06-02T23:27:14.218Z,20.40
2018-06-02T23:29:42.486Z,20.40
2018-06-02T23:32:10.898Z,20.30
2018-06-02T23:34:39.157Z,20.40
2018-06-02T23:37:07.421Z,20.40
2018-06-02T23:39:36.444Z,20.30
2018-06-02T23:42:04.725Z,20.30
2018-06-02T23:44:32.970Z,20.20
2018-06-02T23:47:01.210Z,20.10
2018-06-02T23:49:30.231Z,20.10
2018-06-02T23:51:58.477Z,20.10
2018-06-02T23:54:26.734Z,20.10
2018-06-02T23:56:54.984Z,20.20
2018-06-02T23:59:23.270Z,20.20
